sensor_id;sensor_type;location;lat;lon;timestamp;pressure;altitude;pressure_sealevel;temperature;humidity
66664;BME280;59683;51.428;-1.994;2023-04-10T09:41:09;99968.59;;;11.01;100.00
66664;BME280;59683;51.428;-1.994;2023-04-10T09:43:35;99972.78;;;11.04;100.00
66664;BME280;59683;51.428;-1.994;2023-04-10T09:46:00;99969.59;;;11.10;100.00
66664;BME280;59683;51.428;-1.994;2023-04-10T09:48:26;99966.09;;;11.29;100.00
66664;BME280;59683;51.428;-1.994;2023-04-10T09:50:52;99960.63;;;11.40;100.00
66664;BME280;59683;51.428;-1.994;2023-04-10T09:53:19;99940.84;;;11.62;100.00
66664;BME280;59683;51.428;-1.994;2023-04-10T09:55:46;99938.34;;;11.70;100.00
66664;BME280;59683;51.428;-1.994;2023-04-10T09:58:12;99933.16;;;12.06;100.00
66664;BME280;59683;51.428;-1.994;2023-04-10T10:00:39;99931.94;;;12.46;100.00
66664;BME280;59683;51.428;-1.994;2023-04-10T10:03:08;99915.69;;;12.67;100.00
66664;BME280;59683;51.428;-1.994;2023-04-10T10:05:36;99916.22;;;12.88;100.00
66664;BME280;59683;51.428;-1.994;2023-04-10T10:08:03;99906.81;;;13.20;100.00
66664;BME280;59683;51.428;-1.994;2023-04-10T10:10:29;99910.13;;;13.40;100.00
66664;BME280;59683;51.428;-1.994;2023-04-10T10:12:58;99907.72;;;13.54;100.00
66664;BME280;59683;51.428;-1.994;2023-04-10T10:18:06;99920.56;;;14.09;100.00
66664;BME280;59683;51.428;-1.994;2023-04-10T10:20:33;99907.25;;;14.01;100.00
66664;BME280;59683;51.428;-1.994;2023-04-10T10:23:02;99911.84;;;14.33;100.00
66664;BME280;59683;51.428;-1.994;2023-04-10T10:25:29;99911.47;;;14.20;100.00
66664;BME280;59683;51.428;-1.994;2023-04-10T10:27:57;99905.88;;;13.89;100.00
66664;BME280;59683;51.428;-1.994;2023-04-10T10:30:24;99929.19;;;13.61;100.00
66664;BME280;59683;51.428;-1.994;2023-04-10T10:32:50;99918.38;;;13.28;100.00
66664;BME280;59683;51.428;-1.994;2023-04-10T10:35:17;99903.84;;;12.97;100.00
66664;BME280;59683;51.428;-1.994;2023-04-10T10:37:42;99918.34;;;13.02;100.00
66664;BME280;59683;51.428;-1.994;2023-04-10T10:40:19;99910.38;;;13.02;100.00
66664;BME280;59683;51.428;-1.994;2023-04-10T10:45:36;99907.44;;;13.31;100.00
66664;BME280;59683;51.428;-1.994;2023-04-10T10:48:04;99895.56;;;13.52;100.00
66664;BME280;59683;51.428;-1.994;2023-04-10T10:50:53;99893.13;;;13.58;100.00
66664;BME280;59683;51.428;-1.994;2023-04-10T10:53:42;99890.19;;;13.35;100.00
66664;BME280;59683;51.428;-1.994;2023-04-10T10:58:47;99876.06;;;13.69;100.00
66664;BME280;59683;51.428;-1.994;2023-04-10T11:01:13;99874.25;;;14.45;100.00
66664;BME280;59683;51.428;-1.994;2023-04-10T11:03:39;99873.50;;;15.41;100.00
66664;BME280;59683;51.428;-1.994;2023-04-10T11:06:10;99870.56;;;16.60;100.00
66664;BME280;59683;51.428;-1.994;2023-04-10T11:08:38;99859.25;;;17.11;100.00
66664;BME280;59683;51.428;-1.994;2023-04-10T11:13:38;99849.00;;;16.99;100.00
66664;BME280;59683;51.428;-1.994;2023-04-10T11:16:06;99849.59;;;17.54;100.00
66664;BME280;59683;51.428;-1.994;2023-04-10T11:21:10;99845.91;;;16.73;100.00
66664;BME280;59683;51.428;-1.994;2023-04-10T11:31:36;99830.84;;;14.52;100.00
66664;BME280;59683;51.428;-1.994;2023-04-10T11:34:05;99844.22;;;14.10;100.00
66664;BME280;59683;51.428;-1.994;2023-04-10T11:36:33;99856.38;;;13.96;100.00
66664;BME280;59683;51.428;-1.994;2023-04-10T11:39:02;99856.78;;;13.75;100.00
66664;BME280;59683;51.428;-1.994;2023-04-10T11:41:34;99866.09;;;13.37;100.00
66664;BME280;59683;51.428;-1.994;2023-04-10T11:44:03;99849.63;;;13.33;100.00
66664;BME280;59683;51.428;-1.994;2023-04-10T11:46:29;99858.91;;;13.29;100.00
66664;BME280;59683;51.428;-1.994;2023-04-10T11:48:57;99845.66;;;13.11;100.00
66664;BME280;59683;51.428;-1.994;2023-04-10T11:51:23;99839.94;;;12.98;100.00
66664;BME280;59683;51.428;-1.994;2023-04-10T11:53:49;99833.06;;;12.87;100.00
66664;BME280;59683;51.428;-1.994;2023-04-10T11:59:21;99856.47;;;14.86;100.00
66664;BME280;59683;51.428;-1.994;2023-04-10T12:01:47;99876.88;;;15.35;100.00
66664;BME280;59683;51.428;-1.994;2023-04-10T12:04:17;99915.75;;;13.63;100.00
66664;BME280;59683;51.428;-1.994;2023-04-10T12:17:05;99914.16;;;13.00;100.00
66664;BME280;59683;51.428;-1.994;2023-04-10T12:19:32;99907.50;;;14.32;100.00
66664;BME280;59683;51.428;-1.994;2023-04-10T12:21:58;99908.06;;;14.77;100.00
66664;BME280;59683;51.428;-1.994;2023-04-10T12:27:34;99928.78;;;16.42;100.00
66664;BME280;59683;51.428;-1.994;2023-04-10T12:30:06;99922.53;;;16.81;100.00
66664;BME280;59683;51.428;-1.994;2023-04-10T12:32:32;99937.78;;;17.47;100.00
66664;BME280;59683;51.428;-1.994;2023-04-10T12:34:57;99932.06;;;16.98;100.00
66664;BME280;59683;51.428;-1.994;2023-04-10T12:37:48;99927.25;;;16.16;100.00
66664;BME280;59683;51.428;-1.994;2023-04-10T12:40:14;99929.84;;;15.29;100.00
66664;BME280;59683;51.428;-1.994;2023-04-10T12:42:39;99942.28;;;14.39;100.00
66664;BME280;59683;51.428;-1.994;2023-04-10T12:45:08;99931.88;;;14.62;100.00
66664;BME280;59683;51.428;-1.994;2023-04-10T12:47:49;99932.53;;;14.89;100.00
66664;BME280;59683;51.428;-1.994;2023-04-10T12:50:18;99952.97;;;15.70;100.00
66664;BME280;59683;51.428;-1.994;2023-04-10T12:53:20;99948.25;;;16.50;100.00
66664;BME280;59683;51.428;-1.994;2023-04-10T12:56:15;99960.91;;;17.26;100.00
66664;BME280;59683;51.428;-1.994;2023-04-10T12:58:42;99958.63;;;16.99;100.00
66664;BME280;59683;51.428;-1.994;2023-04-10T13:01:08;99955.41;;;16.81;100.00
66664;BME280;59683;51.428;-1.994;2023-04-10T13:03:35;99948.50;;;16.64;100.00
66664;BME280;59683;51.428;-1.994;2023-04-10T13:06:01;99955.44;;;17.57;100.00
66664;BME280;59683;51.428;-1.994;2023-04-10T13:08:26;99967.28;;;17.24;100.00
66664;BME280;59683;51.428;-1.994;2023-04-10T13:10:52;99970.81;;;16.79;100.00
66664;BME280;59683;51.428;-1.994;2023-04-10T13:13:19;99949.78;;;16.99;100.00
66664;BME280;59683;51.428;-1.994;2023-04-10T13:15:44;99961.88;;;16.64;100.00
66664;BME280;59683;51.428;-1.994;2023-04-10T13:18:10;99957.25;;;17.04;100.00
66664;BME280;59683;51.428;-1.994;2023-04-10T13:20:37;99969.47;;;16.52;100.00
66664;BME280;59683;51.428;-1.994;2023-04-10T13:23:03;99962.38;;;16.36;100.00
66664;BME280;59683;51.428;-1.994;2023-04-10T13:25:32;99961.56;;;17.28;100.00
66664;BME280;59683;51.428;-1.994;2023-04-10T13:27:59;99967.66;;;17.36;91.59
66664;BME280;59683;51.428;-1.994;2023-04-10T13:30:26;99965.72;;;17.45;78.97
66664;BME280;59683;51.428;-1.994;2023-04-10T13:32:51;99963.88;;;17.31;85.79
66664;BME280;59683;51.428;-1.994;2023-04-10T13:35:17;99961.50;;;17.51;83.71
66664;BME280;59683;51.428;-1.994;2023-04-10T13:37:42;99964.41;;;17.79;89.93
66664;BME280;59683;51.428;-1.994;2023-04-10T13:40:08;99945.69;;;17.11;93.25
66664;BME280;59683;51.428;-1.994;2023-04-10T13:42:33;99951.47;;;17.00;91.09
66664;BME280;59683;51.428;-1.994;2023-04-10T13:45:00;99935.50;;;16.38;96.27
66664;BME280;59683;51.428;-1.994;2023-04-10T13:47:26;99941.81;;;16.06;100.00
66664;BME280;59683;51.428;-1.994;2023-04-10T13:49:51;99924.78;;;15.59;100.00
66664;BME280;59683;51.428;-1.994;2023-04-10T13:52:17;99927.25;;;15.85;100.00
66664;BME280;59683;51.428;-1.994;2023-04-10T13:54:42;99926.72;;;15.01;100.00
66664;BME280;59683;51.428;-1.994;2023-04-10T13:57:07;99920.75;;;14.75;100.00
66664;BME280;59683;51.428;-1.994;2023-04-10T13:59:33;99915.13;;;14.19;100.00
66664;BME280;59683;51.428;-1.994;2023-04-10T14:01:58;99912.34;;;14.45;100.00
66664;BME280;59683;51.428;-1.994;2023-04-10T14:04:23;99930.78;;;14.30;100.00
66664;BME280;59683;51.428;-1.994;2023-04-10T14:06:49;99932.00;;;15.34;100.00
66664;BME280;59683;51.428;-1.994;2023-04-10T14:09:17;99944.84;;;16.34;100.00
66664;BME280;59683;51.428;-1.994;2023-04-10T14:11:42;99937.59;;;17.34;90.80
66664;BME280;59683;51.428;-1.994;2023-04-10T14:14:08;99943.97;;;17.63;83.09
66664;BME280;59683;51.428;-1.994;2023-04-10T14:16:33;99953.06;;;17.77;85.59
66664;BME280;59683;51.428;-1.994;2023-04-10T14:18:59;99945.19;;;17.45;86.90
66664;BME280;59683;51.428;-1.994;2023-04-10T14:21:24;99951.09;;;16.80;81.91
66664;BME280;59683;51.428;-1.994;2023-04-10T14:23:50;99949.00;;;15.41;88.76
66664;BME280;59683;51.428;-1.994;2023-04-10T14:26:15;99955.34;;;16.66;89.89
66664;BME280;59683;51.428;-1.994;2023-04-10T14:28:41;99961.56;;;16.90;76.94
66664;BME280;59683;51.428;-1.994;2023-04-10T14:31:06;99961.53;;;17.65;64.36
66664;BME280;59683;51.428;-1.994;2023-04-10T14:33:33;99966.13;;;17.42;66.99
66664;BME280;59683;51.428;-1.994;2023-04-10T14:35:59;99962.00;;;17.16;69.16
66664;BME280;59683;51.428;-1.994;2023-04-10T14:38:24;99956.88;;;17.07;74.17
66664;BME280;59683;51.428;-1.994;2023-04-10T14:40:50;99959.69;;;17.13;74.10
66664;BME280;59683;51.428;-1.994;2023-04-10T14:43:16;99958.66;;;17.14;80.53
66664;BME280;59683;51.428;-1.994;2023-04-10T14:45:43;99958.75;;;17.73;78.14
66664;BME280;59683;51.428;-1.994;2023-04-10T14:48:08;99947.91;;;17.37;66.44
66664;BME280;59683;51.428;-1.994;2023-04-10T14:50:35;99951.06;;;17.03;78.03
66664;BME280;59683;51.428;-1.994;2023-04-10T14:53:01;99944.09;;;17.17;89.02
66664;BME280;59683;51.428;-1.994;2023-04-10T14:55:29;99938.53;;;17.41;76.55
66664;BME280;59683;51.428;-1.994;2023-04-10T14:57:55;99950.84;;;16.67;90.23
66664;BME280;59683;51.428;-1.994;2023-04-10T15:00:21;99955.84;;;17.31;88.05
66664;BME280;59683;51.428;-1.994;2023-04-10T15:02:49;99953.50;;;17.13;80.91
66664;BME280;59683;51.428;-1.994;2023-04-10T15:05:14;99955.19;;;17.29;86.10
66664;BME280;59683;51.428;-1.994;2023-04-10T15:07:40;99952.59;;;17.20;83.78
66664;BME280;59683;51.428;-1.994;2023-04-10T15:10:06;99942.53;;;17.22;91.60
66664;BME280;59683;51.428;-1.994;2023-04-10T15:12:31;99921.69;;;17.18;83.46
66664;BME280;59683;51.428;-1.994;2023-04-10T15:14:56;99925.88;;;17.35;86.73
66664;BME280;59683;51.428;-1.994;2023-04-10T15:17:22;99925.25;;;17.92;75.57
66664;BME280;59683;51.428;-1.994;2023-04-10T15:19:48;99918.59;;;18.03;81.03
66664;BME280;59683;51.428;-1.994;2023-04-10T15:22:13;99920.09;;;18.63;75.08
66664;BME280;59683;51.428;-1.994;2023-04-10T15:24:39;99922.03;;;18.91;75.23
66664;BME280;59683;51.428;-1.994;2023-04-10T15:27:05;99905.16;;;19.25;56.58
66664;BME280;59683;51.428;-1.994;2023-04-10T15:29:36;99915.94;;;17.73;62.36
66664;BME280;59683;51.428;-1.994;2023-04-10T15:32:02;99917.34;;;17.02;67.91
66664;BME280;59683;51.428;-1.994;2023-04-10T15:34:28;99905.69;;;16.72;76.17
66664;BME280;59683;51.428;-1.994;2023-04-10T15:36:53;99900.06;;;16.90;69.76
66664;BME280;59683;51.428;-1.994;2023-04-10T15:39:18;99918.72;;;16.98;70.14
66664;BME280;59683;51.428;-1.994;2023-04-10T15:41:44;99921.31;;;16.37;73.94
66664;BME280;59683;51.428;-1.994;2023-04-10T15:44:09;99909.00;;;15.97;75.79
66664;BME280;59683;51.428;-1.994;2023-04-10T15:46:36;99908.06;;;14.77;96.95
66664;BME280;59683;51.428;-1.994;2023-04-10T15:49:01;99918.22;;;13.98;100.00
66664;BME280;59683;51.428;-1.994;2023-04-10T15:51:27;99921.63;;;13.74;100.00
66664;BME280;59683;51.428;-1.994;2023-04-10T15:53:52;99924.13;;;14.26;100.00
66664;BME280;59683;51.428;-1.994;2023-04-10T16:15:44;99926.03;;;14.50;100.00
66664;BME280;59683;51.428;-1.994;2023-04-10T16:18:11;99938.31;;;15.41;100.00
66664;BME280;59683;51.428;-1.994;2023-04-10T16:20:39;99929.88;;;15.93;84.18
66664;BME280;59683;51.428;-1.994;2023-04-10T16:23:05;99929.56;;;16.19;74.45
66664;BME280;59683;51.428;-1.994;2023-04-10T17:04:35;99967.38;;;13.86;100.00
